Time;durP1;ratioP1;P1;durP2;ratioP2;P2;SDS_P1;SDS_P2;PMS_P1;PMS_P2;Temp;Humidity;BMP_temperature;BMP_pressure;BME280_temperature;BME280_humidity;BME280_pressure;Samples;Min_cycle;Max_cycle;Signal;HPM_P1;HPM_P2
2022/08/19 00:01:24;;;;;;;0.00;0.00;;;17.80;99.90;;;;;;4993383;28;20133;-69
2022/08/19 00:03:50;;;;;;;0.32;0.32;;;17.80;99.90;;;;;;4997993;28;20133;-69
2022/08/19 00:06:17;;;;;;;0.08;0.08;;;17.80;99.90;;;;;;4989939;28;20121;-69
2022/08/19 00:08:43;;;;;;;0.05;0.05;;;17.80;99.90;;;;;;4997802;28;20046;-69
2022/08/19 00:11:09;;;;;;;0.00;0.00;;;17.70;99.90;;;;;;5002368;28;20038;-69
2022/08/19 00:13:34;;;;;;;0.00;0.00;;;17.70;99.90;;;;;;5003487;28;20053;-69
2022/08/19 00:16:00;;;;;;;0.10;0.10;;;17.70;99.90;;;;;;4997814;28;20041;-69
2022/08/19 00:18:26;;;;;;;0.10;0.10;;;17.70;99.90;;;;;;4994347;28;20046;-69
2022/08/19 00:20:52;;;;;;;2.83;0.40;;;17.60;99.90;;;;;;4993955;28;20046;-69
2022/08/19 00:23:18;;;;;;;13.05;0.80;;;17.60;99.90;;;;;;5012291;28;20042;-69
2022/08/19 00:25:44;;;;;;;0.15;0.15;;;17.60;99.90;;;;;;5013905;28;20140;-69
2022/08/19 00:28:10;;;;;;;0.20;0.20;;;17.60;99.90;;;;;;5005390;28;20046;-69
2022/08/19 00:30:36;;;;;;;0.10;0.10;;;17.60;99.90;;;;;;4998112;28;20311;-68
2022/08/19 00:33:02;;;;;;;0.00;0.00;;;17.60;99.90;;;;;;4991538;28;20078;-69
2022/08/19 00:35:28;;;;;;;0.40;0.40;;;17.50;99.90;;;;;;4996719;28;20068;-69
2022/08/19 00:37:53;;;;;;;0.30;0.30;;;17.60;99.90;;;;;;5011373;28;20053;-69
2022/08/19 00:40:20;;;;;;;0.10;0.10;;;17.50;99.90;;;;;;4999963;28;20111;-69
2022/08/19 00:42:46;;;;;;;0.10;0.10;;;17.40;99.90;;;;;;5016958;28;20077;-69
2022/08/19 00:45:16;;;;;;;0.20;0.20;;;17.40;99.90;;;;;;5010897;28;20042;-69
2022/08/19 00:47:44;;;;;;;0.08;0.08;;;17.40;99.90;;;;;;5010429;28;20223;-69
2022/08/19 00:50:13;;;;;;;8.93;1.05;;;17.50;99.90;;;;;;4997909;28;20048;-69
2022/08/19 00:52:45;;;;;;;1.65;0.30;;;17.40;99.90;;;;;;5009926;28;20160;-69
2022/08/19 00:55:15;;;;;;;0.75;0.20;;;17.40;99.90;;;;;;5017147;28;20672;-69
2022/08/19 00:57:45;;;;;;;0.00;0.00;;;17.40;99.90;;;;;;4990343;28;20054;-69
2022/08/19 01:00:14;;;;;;;0.10;0.10;;;17.40;99.90;;;;;;5004689;28;20046;-69
2022/08/19 01:02:41;;;;;;;0.03;0.03;;;17.40;99.90;;;;;;5011508;28;20038;-69
2022/08/19 01:05:10;;;;;;;0.47;0.47;;;17.30;99.90;;;;;;5008801;28;20057;-69
2022/08/19 01:07:38;;;;;;;0.22;0.22;;;17.30;99.90;;;;;;5009013;28;20599;-69
2022/08/19 01:10:07;;;;;;;0.00;0.00;;;17.30;99.90;;;;;;5001344;28;20038;-68
2022/08/19 01:12:33;;;;;;;0.20;0.20;;;17.30;99.90;;;;;;5013228;28;20050;-69
2022/08/19 01:14:59;;;;;;;0.47;0.40;;;17.20;99.90;;;;;;5001105;28;20115;-69
2022/08/19 01:17:25;;;;;;;0.40;0.40;;;17.20;99.90;;;;;;5002232;28;20069;-69
2022/08/19 01:19:52;;;;;;;0.10;0.10;;;17.20;99.90;;;;;;5000964;28;20762;-69
2022/08/19 01:22:23;;;;;;;0.13;0.13;;;17.20;99.90;;;;;;5006767;28;20124;-69
2022/08/19 01:24:50;;;;;;;0.10;0.10;;;17.20;99.90;;;;;;5010648;28;20056;-69
2022/08/19 01:27:16;;;;;;;0.43;0.43;;;17.20;99.90;;;;;;5007485;28;20069;-69
2022/08/19 01:29:44;;;;;;;0.40;0.40;;;17.10;99.90;;;;;;5006416;28;20498;-68
2022/08/19 01:32:15;;;;;;;0.35;0.35;;;17.10;99.90;;;;;;5006264;28;20505;-69
2022/08/19 01:34:41;;;;;;;0.10;0.10;;;17.10;99.90;;;;;;5008241;28;20141;-69
2022/08/19 01:37:10;;;;;;;0.10;0.10;;;17.10;99.90;;;;;;5004739;28;20031;-69
2022/08/19 01:39:38;;;;;;;0.00;0.00;;;17.10;99.90;;;;;;5000952;28;20096;-68
2022/08/19 01:42:04;;;;;;;0.22;0.22;;;16.90;99.90;;;;;;4995837;28;20046;-69
2022/08/19 01:44:30;;;;;;;0.00;0.00;;;17.00;99.90;;;;;;5002578;28;20050;-69
2022/08/19 01:46:56;;;;;;;0.10;0.10;;;17.00;99.90;;;;;;5008979;28;20057;-69
2022/08/19 01:49:26;;;;;;;0.10;0.10;;;16.90;99.90;;;;;;5008008;28;20050;-69
2022/08/19 01:51:53;;;;;;;0.55;0.55;;;17.00;99.90;;;;;;5000941;28;20406;-69
2022/08/19 01:54:20;;;;;;;0.25;0.20;;;16.90;99.90;;;;;;5006405;28;20069;-69
2022/08/19 01:56:45;;;;;;;0.10;0.10;;;16.90;99.90;;;;;;5009726;28;20482;-69
2022/08/19 01:59:19;;;;;;;0.22;0.22;;;16.90;99.90;;;;;;4995608;28;20053;-69
2022/08/19 02:01:45;;;;;;;0.13;0.13;;;16.90;99.90;;;;;;5008404;28;20052;-69
2022/08/19 02:04:11;;;;;;;0.20;0.20;;;16.90;99.90;;;;;;5008412;28;20121;-69
2022/08/19 02:06:37;;;;;;;0.40;0.22;;;16.90;99.90;;;;;;5001538;28;20463;-69
2022/08/19 02:09:04;;;;;;;0.38;0.38;;;16.90;99.90;;;;;;4999639;28;20050;-69
2022/08/19 02:11:33;;;;;;;0.05;0.05;;;16.90;99.90;;;;;;5007639;28;20053;-69
2022/08/19 02:14:01;;;;;;;0.32;0.32;;;16.90;99.90;;;;;;4994381;28;20046;-69
2022/08/19 02:16:28;;;;;;;0.20;0.20;;;16.90;99.90;;;;;;4992109;28;21676;-69
2022/08/19 02:18:54;;;;;;;0.20;0.20;;;16.90;99.90;;;;;;5006070;28;20470;-69
2022/08/19 02:21:21;;;;;;;0.40;0.40;;;16.80;99.90;;;;;;4995793;28;20070;-69
2022/08/19 02:23:47;;;;;;;0.10;0.10;;;16.80;99.90;;;;;;5008764;28;20125;-69
2022/08/19 02:26:13;;;;;;;0.08;0.08;;;16.80;99.90;;;;;;5003978;28;20166;-69
2022/08/19 02:28:40;;;;;;;0.63;0.63;;;16.80;99.90;;;;;;4988867;28;20089;-69
2022/08/19 02:31:14;;;;;;;0.10;0.10;;;16.90;99.90;;;;;;5001797;28;20054;-69
2022/08/19 02:33:40;;;;;;;0.15;0.15;;;16.90;99.90;;;;;;5001769;28;20095;-69
2022/08/19 02:36:08;;;;;;;0.10;0.10;;;16.90;99.90;;;;;;5005179;28;20461;-69
2022/08/19 02:38:34;;;;;;;0.17;0.17;;;16.80;99.90;;;;;;4990503;28;20104;-69
2022/08/19 02:41:11;;;;;;;0.10;0.10;;;16.80;99.90;;;;;;5006511;28;20041;-69
2022/08/19 02:43:38;;;;;;;0.20;0.20;;;16.80;99.90;;;;;;4995574;28;20344;-69
2022/08/19 02:46:30;;;;;;;0.22;0.22;;;16.80;99.90;;;;;;5008809;28;20103;-69
2022/08/19 02:49:00;;;;;;;0.15;0.15;;;16.80;99.90;;;;;;4991437;28;20058;-69
2022/08/19 02:51:36;;;;;;;0.03;0.03;;;16.80;99.90;;;;;;5006451;28;20481;-69
2022/08/19 02:54:03;;;;;;;0.20;0.20;;;16.80;99.90;;;;;;4998694;28;20073;-69
2022/08/19 02:56:30;;;;;;;0.00;0.00;;;16.80;99.90;;;;;;4993084;28;20041;-70
2022/08/19 02:58:57;;;;;;;0.73;0.45;;;16.80;99.90;;;;;;5008427;28;20104;-69
2022/08/19 03:01:26;;;;;;;0.20;0.20;;;16.80;99.90;;;;;;5004188;28;20100;-69
2022/08/19 03:03:53;;;;;;;0.05;0.05;;;16.80;99.90;;;;;;4995556;28;20069;-69
2022/08/19 03:06:19;;;;;;;0.30;0.30;;;16.80;99.90;;;;;;4996670;28;20161;-69
2022/08/19 03:08:46;;;;;;;0.17;0.17;;;16.80;99.90;;;;;;4999841;28;20046;-69
2022/08/19 03:11:15;;;;;;;0.20;0.20;;;16.80;99.90;;;;;;4998029;28;20528;-69
2022/08/19 03:13:41;;;;;;;0.70;0.65;;;16.80;99.90;;;;;;5007850;28;20088;-69
2022/08/19 03:16:07;;;;;;;0.35;0.35;;;16.70;99.90;;;;;;5007914;28;20100;-69
2022/08/19 03:18:32;;;;;;;0.25;0.25;;;16.70;99.90;;;;;;4995192;28;20086;-69
2022/08/19 03:20:58;;;;;;;0.00;0.00;;;16.70;99.90;;;;;;4997402;28;20543;-69
2022/08/19 03:23:23;;;;;;;0.82;0.50;;;16.60;99.90;;;;;;5007774;28;20042;-68
2022/08/19 03:25:53;;;;;;;0.20;0.20;;;16.70;99.90;;;;;;4999391;28;20375;-69
2022/08/19 03:28:20;;;;;;;0.10;0.10;;;16.70;99.90;;;;;;4989854;28;20401;-69
2022/08/19 03:31:02;;;;;;;0.20;0.20;;;16.70;99.90;;;;;;4990341;28;20057;-69
2022/08/19 03:33:29;;;;;;;0.22;0.22;;;16.70;99.90;;;;;;5005544;28;20045;-69
2022/08/19 03:36:09;;;;;;;0.10;0.10;;;16.70;99.90;;;;;;4995122;28;20104;-69
2022/08/19 03:38:38;;;;;;;0.70;0.70;;;16.60;99.90;;;;;;5006263;28;20053;-69
2022/08/19 03:41:07;;;;;;;0.13;0.13;;;16.60;99.90;;;;;;5004388;28;20482;-69
2022/08/19 03:43:38;;;;;;;0.10;0.10;;;16.60;99.90;;;;;;4993280;28;20456;-69
2022/08/19 03:46:07;;;;;;;0.30;0.30;;;16.70;99.90;;;;;;5005637;28;20041;-69
2022/08/19 03:48:34;;;;;;;0.05;0.05;;;16.60;99.90;;;;;;5005725;28;20042;-69
2022/08/19 03:51:00;;;;;;;0.15;0.15;;;16.60;99.90;;;;;;4995022;28;20042;-69
2022/08/19 03:53:28;;;;;;;0.20;0.20;;;16.50;99.90;;;;;;5007391;28;20045;-69
2022/08/19 03:55:54;;;;;;;0.00;0.00;;;16.50;99.90;;;;;;5006300;28;20041;-69
2022/08/19 03:58:22;;;;;;;0.00;0.00;;;16.60;99.90;;;;;;4988662;28;20050;-69
2022/08/19 04:00:47;;;;;;;0.00;0.00;;;16.60;99.90;;;;;;4999489;28;20133;-69
2022/08/19 04:03:13;;;;;;;0.20;0.20;;;16.50;99.90;;;;;;4990456;28;20461;-69
2022/08/19 04:05:39;;;;;;;0.30;0.30;;;16.50;99.90;;;;;;5002507;28;20042;-69
2022/08/19 04:08:05;;;;;;;0.20;0.20;;;16.50;99.90;;;;;;4997697;28;20397;-68
2022/08/19 04:10:35;;;;;;;0.20;0.20;;;16.50;99.90;;;;;;4991169;28;20059;-69
2022/08/19 04:13:01;;;;;;;0.20;0.20;;;16.50;99.90;;;;;;5004238;28;20042;-69
2022/08/19 04:15:28;;;;;;;0.20;0.20;;;16.60;99.90;;;;;;5008145;28;20456;-69
2022/08/19 04:17:54;;;;;;;0.50;0.50;;;16.60;99.90;;;;;;4994967;28;20133;-69
2022/08/19 04:20:20;;;;;;;0.10;0.10;;;16.50;99.90;;;;;;4998856;28;20120;-68
2022/08/19 04:22:45;;;;;;;0.30;0.30;;;16.60;99.90;;;;;;5006293;28;20124;-68
2022/08/19 04:25:11;;;;;;;0.10;0.10;;;16.60;99.90;;;;;;4991680;28;20466;-68
2022/08/19 04:27:37;;;;;;;1.38;1.27;;;16.60;99.90;;;;;;5006150;28;20052;-68
2022/08/19 04:30:03;;;;;;;0.35;0.35;;;16.50;99.90;;;;;;4993125;28;20034;-69
2022/08/19 04:32:31;;;;;;;0.17;0.17;;;16.50;99.90;;;;;;5000236;28;20054;-69
2022/08/19 04:34:58;;;;;;;0.15;0.15;;;16.50;99.90;;;;;;5005453;28;20175;-69
2022/08/19 04:37:26;;;;;;;0.38;0.38;;;16.50;99.90;;;;;;5001950;28;20034;-69
2022/08/19 04:42:38;;;;;;;0.32;0.32;;;16.50;99.90;;;;;;5005425;28;20046;-69
2022/08/19 04:45:06;;;;;;;0.20;0.20;;;16.50;99.90;;;;;;5005986;28;20045;-69
2022/08/19 04:47:32;;;;;;;0.75;0.75;;;16.60;99.90;;;;;;4995233;28;20043;-69
2022/08/19 04:49:58;;;;;;;0.43;0.43;;;16.60;99.90;;;;;;4997374;28;20046;-69
2022/08/19 04:52:24;;;;;;;0.52;0.25;;;16.60;99.90;;;;;;4995400;28;20133;-69
2022/08/19 04:54:50;;;;;;;0.00;0.00;;;16.60;99.90;;;;;;5007255;28;20442;-69
2022/08/19 04:57:15;;;;;;;0.05;0.05;;;16.60;99.90;;;;;;5001332;28;20060;-69
2022/08/19 04:59:41;;;;;;;0.20;0.20;;;16.60;99.90;;;;;;4993323;28;20045;-69
2022/08/19 05:02:08;;;;;;;0.63;0.63;;;16.60;99.90;;;;;;5000281;28;20130;-69
2022/08/19 05:04:35;;;;;;;1.45;0.45;;;16.60;99.90;;;;;;4997284;28;20042;-69
2022/08/19 05:07:01;;;;;;;0.10;0.10;;;16.70;99.90;;;;;;5009274;28;20041;-69
2022/08/19 05:09:27;;;;;;;0.00;0.00;;;16.70;99.90;;;;;;5008200;28;20057;-69
2022/08/19 05:11:53;;;;;;;0.10;0.10;;;16.70;99.90;;;;;;5004446;28;20531;-69
2022/08/19 05:14:20;;;;;;;0.13;0.13;;;16.70;99.90;;;;;;5002680;28;20073;-69
2022/08/19 05:16:45;;;;;;;0.22;0.22;;;16.80;99.90;;;;;;5008800;28;20049;-69
2022/08/19 05:24:39;;;;;;;0.47;0.47;;;16.90;99.90;;;;;;5001942;28;20454;-69
2022/08/19 05:27:05;;;;;;;0.10;0.10;;;16.90;99.90;;;;;;5011198;28;20054;-69
2022/08/19 05:29:33;;;;;;;0.10;0.10;;;16.90;99.90;;;;;;5001240;28;20140;-69
2022/08/19 05:32:01;;;;;;;0.30;0.30;;;16.90;99.90;;;;;;4990780;28;20050;-69
2022/08/19 05:34:27;;;;;;;2.40;0.70;;;17.00;99.90;;;;;;5000516;28;20046;-69
2022/08/19 05:36:57;;;;;;;0.85;0.52;;;17.00;99.90;;;;;;4991466;28;20394;-70
2022/08/19 05:39:25;;;;;;;0.20;0.20;;;17.00;99.90;;;;;;4992890;28;20054;-70
2022/08/19 05:41:56;;;;;;;0.28;0.28;;;17.00;99.90;;;;;;5010875;28;20042;-70
2022/08/19 05:44:24;;;;;;;0.25;0.17;;;17.00;99.90;;;;;;4996688;28;20888;-69
2022/08/19 05:46:53;;;;;;;0.10;0.10;;;17.10;99.90;;;;;;4989902;28;20050;-70
2022/08/19 05:49:21;;;;;;;0.10;0.10;;;17.10;99.90;;;;;;4992587;28;20042;-70
2022/08/19 05:51:47;;;;;;;0.73;0.73;;;17.10;99.90;;;;;;4998475;28;20042;-70
2022/08/19 05:54:13;;;;;;;0.52;0.47;;;17.20;99.90;;;;;;4991145;28;20177;-70
2022/08/19 05:56:41;;;;;;;0.55;0.45;;;17.20;99.90;;;;;;4994525;28;20041;-70
2022/08/19 05:59:10;;;;;;;0.75;0.75;;;17.30;99.90;;;;;;5003576;28;20077;-70
2022/08/19 06:01:37;;;;;;;0.00;0.00;;;17.40;99.90;;;;;;4997958;28;20077;-70
2022/08/19 06:04:04;;;;;;;0.10;0.10;;;17.40;99.90;;;;;;5008112;28;20516;-70
2022/08/19 06:06:29;;;;;;;0.32;0.32;;;17.40;99.90;;;;;;5008728;28;20045;-70
2022/08/19 06:08:55;;;;;;;0.43;0.43;;;17.50;99.90;;;;;;4999314;28;20422;-70
2022/08/19 06:11:39;;;;;;;0.10;0.10;;;17.50;99.90;;;;;;5007381;28;20046;-68
2022/08/19 06:14:14;;;;;;;0.30;0.30;;;17.60;99.90;;;;;;5004034;28;20050;-69
2022/08/19 06:16:41;;;;;;;0.10;0.10;;;17.70;99.90;;;;;;5002763;28;20045;-70
2022/08/19 06:19:11;;;;;;;0.20;0.20;;;17.70;99.90;;;;;;5003972;28;20053;-70
2022/08/19 06:21:40;;;;;;;0.22;0.22;;;17.70;99.90;;;;;;5006703;28;20099;-70
2022/08/19 06:24:07;;;;;;;0.10;0.10;;;17.80;99.90;;;;;;4997891;28;20034;-70
2022/08/19 06:26:35;;;;;;;0.05;0.05;;;17.80;99.90;;;;;;4999175;28;20042;-70
2022/08/19 06:29:00;;;;;;;0.10;0.10;;;17.90;99.90;;;;;;5010054;28;20042;-70
2022/08/19 06:31:28;;;;;;;0.00;0.00;;;17.90;99.90;;;;;;4996994;28;20100;-70
2022/08/19 06:33:54;;;;;;;0.52;0.52;;;17.90;99.90;;;;;;4994951;28;20165;-70
2022/08/19 06:36:33;;;;;;;0.75;0.75;;;18.00;99.90;;;;;;5002719;28;20129;-70
2022/08/19 06:39:05;;;;;;;0.40;0.40;;;18.00;99.90;;;;;;5004678;28;20064;-70
2022/08/19 06:41:31;;;;;;;0.20;0.20;;;18.10;99.90;;;;;;4996810;28;20092;-71
2022/08/19 06:43:57;;;;;;;0.00;0.00;;;18.20;99.90;;;;;;5006573;28;20041;-70
2022/08/19 06:46:23;;;;;;;0.00;0.00;;;18.20;99.90;;;;;;5002627;28;20516;-70
2022/08/19 06:48:49;;;;;;;0.17;0.17;;;18.30;99.90;;;;;;4989240;28;20125;-70
2022/08/19 06:51:18;;;;;;;0.10;0.10;;;18.30;99.90;;;;;;4992841;28;20133;-71
2022/08/19 06:53:46;;;;;;;0.50;0.50;;;18.40;99.90;;;;;;5007648;28;20077;-71
2022/08/19 06:56:18;;;;;;;0.28;0.28;;;18.50;99.90;;;;;;4993088;28;20053;-70
2022/08/19 06:58:44;;;;;;;0.75;0.75;;;18.50;99.90;;;;;;4990226;28;20090;-70
2022/08/19 07:01:10;;;;;;;0.30;0.30;;;18.60;99.90;;;;;;4996453;28;20081;-70
2022/08/19 07:03:37;;;;;;;0.70;0.65;;;18.70;99.90;;;;;;5008541;28;20541;-70
2022/08/19 07:06:05;;;;;;;0.10;0.08;;;18.70;99.90;;;;;;5009175;28;20427;-70
2022/08/19 07:08:31;;;;;;;0.50;0.50;;;18.80;99.90;;;;;;4993257;28;20046;-70
2022/08/19 07:10:56;;;;;;;0.10;0.10;;;18.90;99.90;;;;;;5002311;28;20111;-70
2022/08/19 07:13:23;;;;;;;0.20;0.20;;;19.00;99.90;;;;;;5004824;28;20129;-70
2022/08/19 07:15:50;;;;;;;0.22;0.22;;;19.00;99.90;;;;;;5007738;28;20108;-70
2022/08/19 07:18:17;;;;;;;0.10;0.10;;;19.10;99.90;;;;;;5006438;28;22263;-70
2022/08/19 07:20:43;;;;;;;1.75;1.08;;;19.10;99.90;;;;;;4995217;28;20054;-70
2022/08/19 07:23:10;;;;;;;0.70;0.70;;;19.20;99.90;;;;;;5000618;28;20049;-70
2022/08/19 07:25:37;;;;;;;0.40;0.40;;;19.20;99.90;;;;;;4993413;28;20057;-71
2022/08/19 07:28:02;;;;;;;0.82;0.82;;;19.30;99.90;;;;;;5007754;28;20588;-70
2022/08/19 07:30:28;;;;;;;0.30;0.30;;;19.30;99.90;;;;;;5008005;28;20117;-70
2022/08/19 07:32:54;;;;;;;1.38;1.02;;;19.40;99.90;;;;;;4989836;28;20046;-70
2022/08/19 07:35:20;;;;;;;0.15;0.15;;;19.40;99.90;;;;;;4989589;28;20494;-70
2022/08/19 07:37:46;;;;;;;0.57;0.57;;;19.50;99.90;;;;;;4996549;28;20127;-71
2022/08/19 07:40:12;;;;;;;0.47;0.47;;;19.50;99.90;;;;;;5007838;28;20505;-71
2022/08/19 07:42:38;;;;;;;0.50;0.50;;;19.60;99.90;;;;;;4996439;28;20061;-71
2022/08/19 07:45:05;;;;;;;0.68;0.68;;;19.60;99.90;;;;;;5002891;28;20102;-71
2022/08/19 07:47:30;;;;;;;2.22;1.08;;;19.70;99.90;;;;;;4998211;28;20065;-69
2022/08/19 07:49:56;;;;;;;0.70;0.43;;;19.80;99.90;;;;;;4989352;28;20046;-69
2022/08/19 07:52:22;;;;;;;0.45;0.45;;;19.90;99.90;;;;;;5002520;28;20041;-69
2022/08/19 07:54:49;;;;;;;0.63;0.20;;;19.90;99.90;;;;;;4994800;28;20161;-69
2022/08/19 07:57:15;;;;;;;0.70;0.70;;;20.00;99.90;;;;;;4990939;28;20073;-69
2022/08/19 07:59:41;;;;;;;0.98;0.57;;;20.00;99.90;;;;;;4990773;28;20185;-69
2022/08/19 08:02:08;;;;;;;0.57;0.57;;;20.10;99.90;;;;;;5006652;28;20117;-69
2022/08/19 08:10:05;;;;;;;0.43;0.43;;;20.40;99.90;;;;;;4987643;28;20049;-69
2022/08/19 08:12:40;;;;;;;0.40;0.40;;;20.50;99.90;;;;;;4999994;28;20093;-68
2022/08/19 08:15:09;;;;;;;1.08;0.98;;;20.50;99.90;;;;;;4992710;28;20042;-68
2022/08/19 08:17:36;;;;;;;2.40;1.15;;;20.70;99.90;;;;;;4987625;28;20050;-68
2022/08/19 08:20:06;;;;;;;1.45;0.85;;;20.70;99.90;;;;;;4988039;28;20042;-68
2022/08/19 08:25:20;;;;;;;2.38;1.42;;;20.80;99.90;;;;;;4992960;28;20046;-68
2022/08/19 08:27:46;;;;;;;2.58;1.15;;;20.90;99.90;;;;;;4998143;28;20065;-68
2022/08/19 08:30:22;;;;;;;0.28;0.28;;;21.00;99.90;;;;;;5001476;28;20046;-68
2022/08/19 08:32:47;;;;;;;1.85;1.50;;;21.10;99.90;;;;;;5004430;28;20082;-69
2022/08/19 08:35:19;;;;;;;0.40;0.40;;;21.20;99.90;;;;;;5002483;28;20079;-68
2022/08/19 08:37:47;;;;;;;5.35;1.55;;;21.30;99.90;;;;;;4991862;28;20092;-68
2022/08/19 08:40:21;;;;;;;0.40;0.40;;;21.40;99.90;;;;;;4999625;28;20165;-68
2022/08/19 08:42:58;;;;;;;1.05;0.80;;;21.40;99.90;;;;;;5006898;28;20076;-69
2022/08/19 08:45:24;;;;;;;2.90;1.48;;;21.60;99.90;;;;;;5003818;28;20398;-69
2022/08/19 08:47:53;;;;;;;1.77;1.13;;;21.60;99.90;;;;;;5004468;28;20053;-69
2022/08/19 08:50:32;;;;;;;10.95;1.27;;;21.80;99.90;;;;;;4993229;28;20064;-69
2022/08/19 08:52:58;;;;;;;1.55;0.88;;;21.90;99.90;;;;;;4996786;28;20512;-69
2022/08/19 08:55:28;;;;;;;0.47;0.47;;;22.00;99.90;;;;;;5001465;28;20027;-70
2022/08/19 08:58:09;;;;;;;0.75;0.75;;;22.00;99.90;;;;;;5006185;28;20449;-70
2022/08/19 09:00:40;;;;;;;0.93;0.93;;;22.10;99.90;;;;;;5003479;28;20045;-69
2022/08/19 09:03:36;;;;;;;0.47;0.47;;;22.10;99.90;;;;;;5004479;28;20472;-69
2022/08/19 09:06:06;;;;;;;11.05;0.57;;;22.10;99.90;;;;;;5000544;28;20093;-69
2022/08/19 09:08:48;;;;;;;0.45;0.20;;;22.10;99.90;;;;;;5000604;28;20052;-69
2022/08/19 09:11:25;;;;;;;0.70;0.25;;;22.10;99.90;;;;;;4999218;28;20064;-68
2022/08/19 09:14:05;;;;;;;9.85;2.05;;;22.30;99.90;;;;;;5010024;28;20068;-70
2022/08/19 09:16:30;;;;;;;1.98;0.43;;;22.50;99.90;;;;;;4997303;28;20121;-67
2022/08/19 09:19:02;;;;;;;0.82;0.82;;;23.00;99.90;;;;;;5009268;28;20157;-68
2022/08/19 09:21:28;;;;;;;0.75;0.75;;;23.40;99.90;;;;;;5004405;28;20085;-67
2022/08/19 09:23:53;;;;;;;20.05;1.40;;;23.90;99.90;;;;;;4999279;28;20046;-69
2022/08/19 09:26:21;;;;;;;1.05;1.05;;;24.30;99.90;;;;;;5007012;28;20561;-68
2022/08/19 09:28:49;;;;;;;1.00;0.30;;;24.70;99.90;;;;;;5006424;28;20497;-68
2022/08/19 09:31:24;;;;;;;0.00;0.00;;;25.20;99.90;;;;;;5004650;28;20046;-69
2022/08/19 09:33:50;;;;;;;0.65;0.40;;;25.40;99.90;;;;;;5003548;28;20038;-69
2022/08/19 09:36:18;;;;;;;0.47;0.47;;;25.60;99.90;;;;;;5001396;28;20038;-68
2022/08/19 09:38:44;;;;;;;0.55;0.55;;;25.60;99.90;;;;;;4993685;28;20069;-68
2022/08/19 09:41:16;;;;;;;0.30;0.30;;;25.40;99.90;;;;;;5003375;28;20057;-70
2022/08/19 09:43:45;;;;;;;0.93;0.55;;;24.90;99.90;;;;;;5003720;28;20073;-68
2022/08/19 09:46:11;;;;;;;1.98;1.88;;;24.50;99.90;;;;;;4997040;28;20038;-66
2022/08/19 09:48:38;;;;;;;0.35;0.35;;;24.30;99.90;;;;;;5002972;28;20513;-69
2022/08/19 09:51:15;;;;;;;4.57;1.20;;;24.60;99.90;;;;;;4995537;28;20104;-69
2022/08/19 09:53:45;;;;;;;0.25;0.25;;;25.00;99.90;;;;;;4997525;28;20133;-69
2022/08/19 09:56:11;;;;;;;1.73;0.98;;;25.50;99.90;;;;;;4994328;28;20039;-69
2022/08/19 09:58:38;;;;;;;0.80;0.77;;;25.70;99.90;;;;;;5005511;28;20496;-69
2022/08/19 10:01:04;;;;;;;0.22;0.22;;;25.70;99.90;;;;;;5007975;28;20042;-69
2022/08/19 10:03:32;;;;;;;1.17;0.57;;;25.90;99.90;;;;;;5010559;28;20537;-69
2022/08/19 10:06:01;;;;;;;0.03;0.03;;;26.00;99.90;;;;;;5000010;28;20081;-69
2022/08/19 10:08:32;;;;;;;0.80;0.65;;;25.60;99.90;;;;;;5000303;28;20081;-69
2022/08/19 10:10:59;;;;;;;0.20;0.20;;;25.40;99.90;;;;;;4992893;28;20382;-69
2022/08/19 10:13:27;;;;;;;0.13;0.13;;;25.50;99.90;;;;;;5005231;28;20069;-68
2022/08/19 10:15:55;;;;;;;0.00;0.00;;;25.60;99.90;;;;;;4991016;28;20505;-69
2022/08/19 10:18:22;;;;;;;0.28;0.28;;;25.30;99.90;;;;;;5006252;28;20153;-69
2022/08/19 10:20:50;;;;;;;0.13;0.13;;;25.10;99.90;;;;;;4994393;28;20046;-69
2022/08/19 10:23:16;;;;;;;0.95;0.38;;;25.10;99.90;;;;;;5003840;28;20168;-69
2022/08/19 10:25:42;;;;;;;0.52;0.52;;;25.20;99.90;;;;;;4996938;28;20038;-69
2022/08/19 10:28:11;;;;;;;0.03;0.03;;;25.50;99.90;;;;;;5000693;28;20044;-70
2022/08/19 10:30:40;;;;;;;0.08;0.08;;;25.90;99.90;;;;;;4990104;28;20054;-69
2022/08/19 10:33:06;;;;;;;0.95;0.82;;;26.10;99.90;;;;;;5000927;28;20450;-70
2022/08/19 10:35:32;;;;;;;0.68;0.20;;;26.20;99.90;;;;;;5003239;28;20037;-70
2022/08/19 10:37:58;;;;;;;1.45;0.22;;;25.90;99.90;;;;;;4992526;28;20038;-70
2022/08/19 10:40:26;;;;;;;0.43;0.22;;;25.70;99.90;;;;;;4989394;28;20050;-70
2022/08/19 10:42:53;;;;;;;0.20;0.20;;;25.40;99.90;;;;;;5002177;28;20050;-70
2022/08/19 10:45:22;;;;;;;4.03;1.00;;;25.10;99.90;;;;;;4993222;28;20038;-70
2022/08/19 10:47:47;;;;;;;0.25;0.17;;;24.90;99.90;;;;;;4996260;28;20055;-70
2022/08/19 10:52:57;;;;;;;0.63;0.55;;;24.90;99.90;;;;;;5002686;28;20416;-70
2022/08/19 10:58:17;;;;;;;0.00;0.00;;;24.80;99.90;;;;;;5002257;28;20184;-70
2022/08/19 11:00:43;;;;;;;0.35;0.35;;;25.30;99.90;;;;;;5002211;28;20042;-70
2022/08/19 11:03:09;;;;;;;0.22;0.10;;;25.20;99.90;;;;;;5002019;28;20049;-70
2022/08/19 11:05:37;;;;;;;0.43;0.40;;;25.20;99.90;;;;;;4994813;28;20085;-70
2022/08/19 11:08:03;;;;;;;0.25;0.25;;;25.10;99.90;;;;;;4997141;28;20113;-70
2022/08/19 11:10:28;;;;;;;0.43;0.30;;;25.00;99.90;;;;;;5000138;28;20193;-70
2022/08/19 11:12:55;;;;;;;0.00;0.00;;;25.00;99.90;;;;;;5003720;28;20042;-70
2022/08/19 11:15:21;;;;;;;0.15;0.15;;;25.00;99.90;;;;;;4996755;28;20109;-70
2022/08/19 11:17:46;;;;;;;0.00;0.00;;;25.30;99.90;;;;;;4993728;28;20175;-70
2022/08/19 11:20:14;;;;;;;0.20;0.20;;;25.20;99.90;;;;;;4989164;28;20809;-70
2022/08/19 11:22:40;;;;;;;0.50;0.50;;;25.30;99.90;;;;;;4999208;28;20078;-70
2022/08/19 11:25:07;;;;;;;0.20;0.20;;;25.30;99.90;;;;;;5003861;28;20061;-70
2022/08/19 11:27:33;;;;;;;0.10;0.10;;;25.30;99.90;;;;;;5006052;28;20042;-70
2022/08/19 11:30:00;;;;;;;0.10;0.10;;;25.30;99.90;;;;;;5008349;28;20046;-70
2022/08/19 11:32:26;;;;;;;0.20;0.20;;;25.10;99.90;;;;;;5009321;28;20042;-70
2022/08/19 11:34:52;;;;;;;10.98;0.40;;;25.00;99.90;;;;;;5008312;28;20046;-70
2022/08/19 11:37:17;;;;;;;0.63;0.63;;;24.80;99.90;;;;;;4990263;28;20098;-71
2022/08/19 11:39:43;;;;;;;0.52;0.52;;;24.90;99.90;;;;;;4995942;28;20042;-71
2022/08/19 11:44:53;;;;;;;0.25;0.25;;;24.90;99.90;;;;;;4996662;28;20440;-70
2022/08/19 11:47:19;;;;;;;0.00;0.00;;;25.10;99.90;;;;;;5008586;28;20109;-70
2022/08/19 11:49:46;;;;;;;2.17;0.82;;;25.50;99.90;;;;;;4997660;28;20050;-70
2022/08/19 11:52:12;;;;;;;0.00;0.00;;;25.30;99.90;;;;;;4997688;28;20038;-70
2022/08/19 11:54:37;;;;;;;0.35;0.30;;;25.80;99.90;;;;;;4991256;28;20059;-70
2022/08/19 11:57:03;;;;;;;1.20;0.57;;;26.30;99.90;;;;;;4992697;28;20097;-70
2022/08/19 11:59:29;;;;;;;0.10;0.10;;;26.60;99.90;;;;;;5001595;28;20081;-70
2022/08/19 12:01:55;;;;;;;0.00;0.00;;;26.40;99.90;;;;;;5004595;28;20253;-70
2022/08/19 12:04:21;;;;;;;0.10;0.10;;;26.40;99.90;;;;;;4994492;28;20073;-70
2022/08/19 12:06:47;;;;;;;1.13;0.47;;;26.60;99.90;;;;;;5000400;28;20556;-70
2022/08/19 12:09:14;;;;;;;0.03;0.03;;;26.50;99.90;;;;;;5006186;28;20130;-70
2022/08/19 12:11:40;;;;;;;0.00;0.00;;;26.40;99.90;;;;;;4997896;28;20092;-70
2022/08/19 12:14:08;;;;;;;0.85;0.65;;;26.20;99.90;;;;;;5005945;28;20103;-70
2022/08/19 12:16:34;;;;;;;3.25;0.73;;;26.00;99.90;;;;;;5012767;28;20049;-70
2022/08/19 12:19:03;;;;;;;1.00;0.20;;;26.00;99.90;;;;;;5000854;28;20392;-70
2022/08/19 12:21:31;;;;;;;0.10;0.10;;;26.00;99.90;;;;;;5008943;28;20045;-69
2022/08/19 12:23:58;;;;;;;0.00;0.00;;;26.10;99.90;;;;;;5012584;28;20049;-70
2022/08/19 12:26:26;;;;;;;0.05;0.05;;;26.10;99.90;;;;;;5010402;28;20084;-69
2022/08/19 12:28:52;;;;;;;0.35;0.35;;;26.20;99.90;;;;;;4999702;28;20103;-70
2022/08/19 12:31:19;;;;;;;0.10;0.10;;;26.60;99.90;;;;;;5009633;28;20052;-70
2022/08/19 12:33:46;;;;;;;0.65;0.65;;;26.60;99.90;;;;;;5008597;28;20045;-70
2022/08/19 12:36:14;;;;;;;7.53;0.93;;;26.40;99.90;;;;;;4995864;28;20048;-70
2022/08/19 12:38:40;;;;;;;0.63;0.63;;;26.10;99.90;;;;;;4999658;28;20053;-70
2022/08/19 12:41:09;;;;;;;0.10;0.10;;;25.90;99.90;;;;;;5003244;28;20042;-70
2022/08/19 12:43:37;;;;;;;0.05;0.05;;;25.80;99.90;;;;;;5005219;28;20058;-70
2022/08/19 12:46:05;;;;;;;0.30;0.30;;;25.70;99.90;;;;;;4999738;28;20478;-70
2022/08/19 12:48:31;;;;;;;0.10;0.10;;;25.70;99.90;;;;;;5004372;28;20050;-70
2022/08/19 12:50:57;;;;;;;0.00;0.00;;;25.70;99.90;;;;;;5010300;28;20634;-70
2022/08/19 12:53:23;;;;;;;0.00;0.00;;;25.70;99.90;;;;;;4996755;28;20046;-70
2022/08/19 12:55:56;;;;;;;0.20;0.20;;;26.00;99.90;;;;;;4992292;28;20065;-70
2022/08/19 12:58:21;;;;;;;;;;;26.10;99.90;;;;;;5021145;28;20497;-70
2022/08/19 13:00:48;;;;;;;0.05;0.05;;;26.00;99.90;;;;;;4995031;28;20008;-70
2022/08/19 13:03:14;;;;;;;0.30;0.30;;;25.90;99.90;;;;;;5004556;28;20049;-69
2022/08/19 13:05:40;;;;;;;0.20;0.20;;;25.90;99.90;;;;;;5010042;28;20038;-70
2022/08/19 13:08:06;;;;;;;0.05;0.05;;;26.20;99.90;;;;;;4990204;28;20574;-70
2022/08/19 13:10:34;;;;;;;0.10;0.10;;;26.20;99.90;;;;;;4997445;28;20085;-70
2022/08/19 13:13:02;;;;;;;0.25;0.20;;;25.90;99.90;;;;;;5007239;28;20597;-70
2022/08/19 13:15:30;;;;;;;0.10;0.10;;;25.70;99.90;;;;;;5009878;28;20086;-70